createdAt,value
2023-04-12T00:01:18.702Z,97110.28
2023-04-12T00:03:50.624Z,97098.34
2023-04-12T00:06:18.600Z,97102.06
2023-04-12T00:08:46.833Z,97103.84
2023-04-12T00:11:14.380Z,97099.28
2023-04-12T00:13:41.929Z,97099.66
2023-04-12T00:16:10.020Z,97094.06
2023-04-12T00:18:37.602Z,97095.47
2023-04-12T00:21:05.508Z,97095.03
2023-04-12T00:23:33.711Z,97087.59
2023-04-12T00:26:01.208Z,97089.25
2023-04-12T00:28:28.711Z,97088.63
2023-04-12T00:30:56.221Z,97089.81
2023-04-12T00:33:23.762Z,97080.72
2023-04-12T00:35:51.871Z,97080.09
2023-04-12T00:38:19.429Z,97076.97
2023-04-12T00:40:46.918Z,97071.38
2023-04-12T00:43:18.894Z,97064.94
2023-04-12T00:45:47.960Z,97065.94
2023-04-12T00:48:16.497Z,97063.22
2023-04-12T00:50:47.447Z,97059.09
2023-04-12T00:53:15.795Z,97056.16
2023-04-12T00:55:45.586Z,97051.19
2023-04-12T00:58:14.437Z,97049.53
2023-04-12T01:00:44.831Z,97043.56
2023-04-12T01:03:13.780Z,97042.75
2023-04-12T01:05:59.886Z,97039.63
2023-04-12T01:09:11.732Z,97037.50
2023-04-12T01:11:56.695Z,97033.84
2023-04-12T01:15:04.881Z,97036.44
2023-04-12T01:17:44.008Z,97034.59
2023-04-12T01:20:19.504Z,97033.97
2023-04-12T01:23:26.269Z,97023.66
2023-04-12T01:26:39.311Z,97027.91
2023-04-12T01:29:14.283Z,97018.81
2023-04-12T01:32:00.255Z,97014.69
2023-04-12T01:34:32.242Z,97017.94
2023-04-12T01:37:03.667Z,97002.91
2023-04-12T01:39:33.475Z,96991.22
2023-04-12T01:42:01.041Z,96979.69
2023-04-12T01:44:29.604Z,96982.56
2023-04-12T01:46:57.341Z,96980.09
2023-04-12T01:49:43.490Z,96976.41
2023-04-12T01:52:16.450Z,96973.53
2023-04-12T01:54:48.983Z,96963.50
2023-04-12T01:57:18.624Z,96956.50
2023-04-12T01:59:48.791Z,96954.03
2023-04-12T02:02:17.538Z,96957.53
2023-04-12T02:04:45.717Z,96953.59
2023-04-12T02:07:15.380Z,96944.84
2023-04-12T02:09:42.847Z,96947.75
2023-04-12T02:12:10.632Z,96942.41
2023-04-12T02:14:38.177Z,96934.56
2023-04-12T02:17:05.951Z,96931.47
2023-04-12T02:19:33.971Z,96926.13
2023-04-12T02:22:02.395Z,96922.63
2023-04-12T02:24:30.272Z,96919.56
2023-04-12T02:27:01.382Z,96913.03
2023-04-12T02:29:29.513Z,96911.38
2023-04-12T02:31:57.371Z,96910.91
2023-04-12T02:34:31.238Z,96902.47
2023-04-12T02:37:08.860Z,96900.81
2023-04-12T02:39:37.096Z,96894.66
2023-04-12T02:42:06.751Z,96890.34
2023-04-12T02:44:34.351Z,96887.47
2023-04-12T02:47:13.637Z,96884.63
2023-04-12T02:49:44.293Z,96877.25
2023-04-12T02:52:15.462Z,96875.75
2023-04-12T02:54:58.325Z,96863.63
2023-04-12T02:57:25.940Z,96867.31
2023-04-12T02:59:53.909Z,96851.09
2023-04-12T03:02:27.860Z,96839.88
2023-04-12T03:05:00.378Z,96844.38
2023-04-12T03:07:37.246Z,96838.59
2023-04-12T03:10:07.299Z,96834.28
2023-04-12T03:12:38.841Z,96821.28
2023-04-12T03:15:17.815Z,96817.00
2023-04-12T03:17:49.170Z,96814.31
2023-04-12T03:20:20.155Z,96813.91
2023-04-12T03:22:59.230Z,96806.56
2023-04-12T03:25:28.536Z,96801.22
2023-04-12T03:28:01.085Z,96803.25
2023-04-12T03:30:45.896Z,96798.34
2023-04-12T03:33:13.718Z,96796.72
2023-04-12T03:35:41.472Z,96785.41
2023-04-12T03:38:09.044Z,96789.72
2023-04-12T03:40:37.261Z,96776.38
2023-04-12T03:43:04.846Z,96775.72
2023-04-12T03:45:32.399Z,96775.28
2023-04-12T03:48:02.619Z,96765.59
2023-04-12T03:50:43.928Z,96766.81
2023-04-12T03:53:15.502Z,96762.72
2023-04-12T03:55:46.001Z,96750.84
2023-04-12T03:58:13.954Z,96750.44
2023-04-12T04:00:44.528Z,96743.47
2023-04-12T04:03:12.403Z,96740.19
2023-04-12T04:05:46.885Z,96736.47
2023-04-12T04:08:16.387Z,96738.53
2023-04-12T04:10:53.999Z,96728.84
2023-04-12T04:13:26.451Z,96730.31
2023-04-12T04:16:04.710Z,96722.75
2023-04-12T04:18:32.987Z,96713.88
2023-04-12T04:21:01.632Z,96717.13
2023-04-12T04:23:38.575Z,96712.81
2023-04-12T04:26:10.880Z,96708.09
2023-04-12T04:28:46.753Z,96703.38
2023-04-12T04:31:19.049Z,96695.00
2023-04-12T04:33:50.731Z,96700.16
2023-04-12T04:36:19.854Z,96692.16
2023-04-12T04:38:53.693Z,96693.78
2023-04-12T04:41:39.035Z,96687.81
2023-04-12T04:44:11.451Z,96689.06
2023-04-12T04:46:45.744Z,96690.09
2023-04-12T04:49:13.238Z,96673.03
2023-04-12T04:51:40.755Z,96683.06
2023-04-12T04:54:11.240Z,96679.13
2023-04-12T04:56:41.948Z,96680.53
2023-04-12T04:59:12.100Z,96685.25
2023-04-12T05:01:41.165Z,96673.56
2023-04-12T05:04:09.197Z,96682.78
2023-04-12T05:06:36.708Z,96674.38
2023-04-12T05:09:06.025Z,96668.22
2023-04-12T05:11:38.805Z,96668.59
2023-04-12T05:14:12.601Z,96667.19
2023-04-12T05:16:41.124Z,96655.50
2023-04-12T05:19:08.638Z,96656.31
2023-04-12T05:21:36.156Z,96648.31
2023-04-12T05:24:03.835Z,96646.44
2023-04-12T05:26:34.297Z,96642.53
2023-04-12T05:29:03.981Z,96645.38
2023-04-12T05:31:32.222Z,96634.69
2023-04-12T05:34:03.429Z,96634.31
2023-04-12T05:36:35.236Z,96631.84
2023-04-12T05:39:04.627Z,96618.69
2023-04-12T05:41:35.003Z,96624.84
2023-04-12T05:44:03.616Z,96612.34
2023-04-12T05:46:31.223Z,96613.34
2023-04-12T05:48:59.360Z,96610.94
2023-04-12T05:51:40.411Z,96616.50
2023-04-12T05:54:11.440Z,96609.34
2023-04-12T05:56:39.279Z,96598.59
2023-04-12T05:59:07.219Z,96595.31
2023-04-12T06:01:34.934Z,96583.41
2023-04-12T06:04:02.789Z,96571.53
2023-04-12T06:06:31.458Z,96571.13
2023-04-12T06:09:00.976Z,96565.41
2023-04-12T06:11:29.596Z,96562.56
2023-04-12T06:13:57.694Z,96556.59
2023-04-12T06:16:25.974Z,96555.34
2023-04-12T06:18:53.618Z,96550.25
2023-04-12T06:21:21.570Z,96546.38
2023-04-12T06:23:49.085Z,96548.84
2023-04-12T06:26:18.546Z,96537.56
2023-04-12T06:28:46.837Z,96533.84
2023-04-12T06:31:17.135Z,96527.06
2023-04-12T06:33:44.839Z,96525.00
2023-04-12T06:36:14.614Z,96526.06
2023-04-12T06:38:43.124Z,96518.88
2023-04-12T06:41:11.606Z,96514.38
2023-04-12T06:43:39.121Z,96505.56
2023-04-12T06:46:08.845Z,96506.59
2023-04-12T06:48:36.337Z,96501.47
2023-04-12T06:51:03.944Z,96496.31
2023-04-12T06:53:31.493Z,96483.81
2023-04-12T06:56:03.409Z,96477.84
2023-04-12T06:58:31.740Z,96472.72
2023-04-12T07:01:10.138Z,96473.53
2023-04-12T07:03:37.846Z,96477.84
2023-04-12T07:06:21.483Z,96459.56
2023-04-12T07:08:52.470Z,96452.19
2023-04-12T07:11:22.528Z,96449.13
2023-04-12T07:13:51.361Z,96448.72
2023-04-12T07:16:18.950Z,96441.75
2023-04-12T07:18:46.551Z,96442.16
2023-04-12T07:21:14.515Z,96437.84
2023-04-12T07:23:42.171Z,96436.59
2023-04-12T07:26:10.027Z,96426.13
2023-04-12T07:28:38.996Z,96426.75
2023-04-12T07:31:07.580Z,96416.03
2023-04-12T07:33:38.246Z,96411.31
2023-04-12T07:36:08.184Z,96401.44
2023-04-12T07:38:35.781Z,96389.91
2023-04-12T07:41:03.349Z,96387.44
2023-04-12T07:43:31.025Z,96374.69
2023-04-12T07:45:59.033Z,96362.75
2023-04-12T07:48:26.659Z,96364.78
2023-04-12T07:50:54.173Z,96362.72
2023-04-12T07:53:28.300Z,96355.09
2023-04-12T07:55:56.587Z,96346.44
2023-04-12T07:58:25.035Z,96343.56
2023-04-12T08:00:53.963Z,96344.34
2023-04-12T08:03:21.756Z,96333.63
2023-04-12T08:05:53.423Z,96335.44
2023-04-12T08:08:24.015Z,96332.53
2023-04-12T08:10:52.238Z,96340.38
2023-04-12T08:13:20.199Z,96325.72
2023-04-12T08:15:48.123Z,96325.72
2023-04-12T08:18:15.816Z,96324.91
2023-04-12T08:20:46.395Z,96329.22
2023-04-12T08:23:13.915Z,96324.09
2023-04-12T08:25:41.658Z,96325.31
2023-04-12T08:28:09.170Z,96327.34
2023-04-12T08:30:36.682Z,96330.63
2023-04-12T08:33:04.363Z,96334.50
2023-04-12T08:35:32.613Z,96332.22
2023-04-12T08:38:06.671Z,96328.91
2023-04-12T08:40:34.306Z,96326.84
2023-04-12T08:43:06.811Z,96336.06
2023-04-12T08:45:36.441Z,96335.81
2023-04-12T08:48:06.065Z,96333.31
2023-04-12T08:50:33.971Z,96326.28
2023-04-12T08:53:01.538Z,96326.41
2023-04-12T08:55:29.166Z,96327.47
2023-04-12T08:57:56.938Z,96325.19
2023-04-12T09:00:25.684Z,96314.63
2023-04-12T09:02:53.439Z,96314.38
2023-04-12T09:05:30.772Z,96308.59
2023-04-12T09:07:59.011Z,96309.19
2023-04-12T09:10:38.979Z,96299.28
2023-04-12T09:13:07.200Z,96293.72
2023-04-12T09:15:35.313Z,96291.41
2023-04-12T09:18:11.077Z,96274.06
2023-04-12T09:20:40.184Z,96280.50
2023-04-12T09:23:24.057Z,96279.00
2023-04-12T09:25:53.116Z,96280.19
2023-04-12T09:28:25.544Z,96282.28
2023-04-12T09:30:54.931Z,96279.38
2023-04-12T09:33:35.327Z,96270.25
2023-04-12T09:36:05.568Z,96278.19
2023-04-12T09:38:34.473Z,96272.09
2023-04-12T09:41:27.211Z,96266.22
2023-04-12T09:43:55.110Z,96268.84
2023-04-12T09:46:22.937Z,96259.59
2023-04-12T09:48:53.522Z,96266.06
2023-04-12T09:51:29.647Z,96258.41
2023-04-12T09:54:03.588Z,96265.19
2023-04-12T09:56:36.378Z,96260.06
2023-04-12T09:59:07.066Z,96264.50
2023-04-12T10:01:42.083Z,96251.13
2023-04-12T10:04:10.075Z,96254.06
2023-04-12T10:06:38.559Z,96257.56
2023-04-12T10:09:06.964Z,96260.34
2023-04-12T10:11:34.637Z,96243.56
2023-04-12T10:14:06.892Z,96244.28
2023-04-12T10:16:35.208Z,96257.34
2023-04-12T10:19:04.086Z,96249.19
2023-04-12T10:21:31.827Z,96254.19
2023-04-12T10:24:00.609Z,96257.59
2023-04-12T10:26:28.271Z,96238.75
2023-04-12T10:29:27.516Z,96238.13
2023-04-12T10:32:19.325Z,96243.13
2023-04-12T10:34:56.278Z,96246.75
2023-04-12T10:38:05.896Z,96240.03
2023-04-12T10:40:34.350Z,96237.47
2023-04-12T10:43:20.553Z,96236.91
2023-04-12T10:45:49.491Z,96246.47
2023-04-12T10:48:39.883Z,96238.34
2023-04-12T10:51:24.994Z,96229.25
2023-04-12T10:54:17.857Z,96222.38
2023-04-12T10:56:47.253Z,96223.19
2023-04-12T10:59:21.445Z,96216.28
2023-04-12T11:02:12.342Z,96212.88
2023-04-12T11:05:10.403Z,96212.78
2023-04-12T11:07:54.587Z,96209.50
2023-04-12T11:10:40.087Z,96214.53
2023-04-12T11:13:09.984Z,96205.75
2023-04-12T11:15:39.812Z,96205.06
2023-04-12T11:18:12.954Z,96199.44
2023-04-12T11:20:41.029Z,96213.72
2023-04-12T11:23:11.109Z,96202.75
2023-04-12T11:25:39.031Z,96210.44
2023-04-12T11:28:14.098Z,96206.25
2023-04-12T11:30:56.328Z,96187.66
2023-04-12T11:33:38.477Z,96205.41
2023-04-12T11:36:14.801Z,96192.69
2023-04-12T11:38:45.974Z,96180.16
2023-04-12T11:41:15.035Z,96182.16
2023-04-12T11:43:42.657Z,96199.81
2023-04-12T11:46:10.548Z,96167.63
2023-04-12T11:48:40.796Z,96174.03
2023-04-12T11:51:24.947Z,96160.59
2023-04-12T11:53:54.331Z,96155.28
2023-04-12T11:56:22.305Z,96168.13
2023-04-12T11:58:50.390Z,96145.47
2023-04-12T12:01:20.298Z,96143.53
2023-04-12T12:03:49.861Z,96151.94
2023-04-12T12:06:19.499Z,96145.84
2023-04-12T12:08:49.523Z,96138.13
2023-04-12T12:11:20.004Z,96151.97
2023-04-12T12:13:50.192Z,96149.69
2023-04-12T12:16:18.775Z,96134.78
2023-04-12T12:18:52.345Z,96126.56
2023-04-12T12:21:20.904Z,96141.38
2023-04-12T12:23:49.261Z,96138.16
2023-04-12T12:26:25.517Z,96132.75
2023-04-12T12:29:00.258Z,96133.00
2023-04-12T12:31:28.746Z,96136.50
2023-04-12T12:33:59.219Z,96140.91
2023-04-12T12:36:32.021Z,96132.19
2023-04-12T12:39:12.831Z,96131.66
2023-04-12T12:41:41.174Z,96131.78
2023-04-12T12:44:10.883Z,96119.31
2023-04-12T12:49:08.752Z,96132.00
2023-04-12T12:51:36.504Z,96110.38
2023-04-12T12:54:04.041Z,96111.66
2023-04-12T12:56:31.596Z,96114.72
2023-04-12T12:58:59.266Z,96113.16
2023-04-12T13:01:27.530Z,96123.06
2023-04-12T13:03:55.369Z,96116.09
2023-04-12T13:06:23.605Z,96117.50
2023-04-12T13:08:52.261Z,96110.16
2023-04-12T13:11:20.313Z,96110.66
2023-04-12T13:13:47.798Z,96109.53
2023-04-12T13:16:16.042Z,96106.66
2023-04-12T13:18:43.944Z,96107.22
2023-04-12T13:21:11.437Z,96099.28
2023-04-12T13:23:38.945Z,96093.97
2023-04-12T13:26:06.906Z,96090.41
2023-04-12T13:28:34.403Z,96081.78
2023-04-12T13:31:01.913Z,96093.47
2023-04-12T13:33:29.403Z,96075.03
2023-04-12T13:35:56.930Z,96092.09
2023-04-12T13:38:24.464Z,96083.03
2023-04-12T13:40:51.957Z,96086.56
2023-04-12T13:43:19.541Z,96091.53
2023-04-12T13:45:47.059Z,96084.88
2023-04-12T13:48:14.708Z,96074.31
2023-04-12T13:50:42.203Z,96068.94
2023-04-12T13:53:09.729Z,96071.38
2023-04-12T13:55:37.348Z,96066.72
2023-04-12T13:58:04.893Z,96074.88
2023-04-12T14:00:32.550Z,96062.16
2023-04-12T14:03:00.186Z,96058.47
2023-04-12T14:05:28.006Z,96061.31
2023-04-12T14:07:55.803Z,96059.03
2023-04-12T14:10:23.348Z,96062.47
2023-04-12T14:12:50.890Z,96056.75
2023-04-12T14:15:19.034Z,96050.75
2023-04-12T14:17:46.648Z,96062.97
2023-04-12T14:20:16.034Z,96062.75
2023-04-12T14:22:44.826Z,96059.81
2023-04-12T14:25:12.325Z,96058.63
2023-04-12T14:27:39.872Z,96047.44
2023-04-12T14:30:08.132Z,96047.03
2023-04-12T14:32:35.740Z,96040.00
2023-04-12T14:35:04.897Z,96038.47
2023-04-12T14:37:33.076Z,96038.00
2023-04-12T14:40:00.712Z,96049.88
2023-04-12T14:42:28.232Z,96040.94
2023-04-12T14:44:55.752Z,96028.72
2023-04-12T14:47:23.478Z,96022.69
2023-04-12T14:49:51.110Z,96037.44
2023-04-12T14:52:18.789Z,96036.25
2023-04-12T14:54:46.292Z,96046.16
2023-04-12T14:57:14.541Z,96045.66
2023-04-12T14:59:42.112Z,96085.44
2023-04-12T15:02:09.717Z,96136.25
2023-04-12T15:04:37.674Z,96136.16
2023-04-12T15:07:05.703Z,96126.16
2023-04-12T15:09:33.202Z,96136.78
2023-04-12T15:12:01.301Z,96127.22
2023-04-12T15:14:29.536Z,96143.22
2023-04-12T15:16:57.098Z,96154.34
2023-04-12T15:19:24.710Z,96146.41
2023-04-12T15:21:54.872Z,96145.84
2023-04-12T15:24:23.626Z,96160.47
2023-04-12T15:26:53.154Z,96147.25
2023-04-12T15:29:22.321Z,96143.22
2023-04-12T15:31:50.671Z,96153.16
2023-04-12T15:34:18.527Z,96148.03
2023-04-12T15:36:46.360Z,96165.41
2023-04-12T15:39:14.837Z,96171.31
2023-04-12T15:41:43.191Z,96165.91
2023-04-12T15:44:14.525Z,96166.03
2023-04-12T15:46:42.585Z,96160.28
2023-04-12T15:49:10.968Z,96158.22
2023-04-12T15:51:38.878Z,96170.19
2023-04-12T15:54:06.614Z,96172.03
2023-04-12T15:56:35.312Z,96178.44
2023-04-12T15:59:03.045Z,96183.72
2023-04-12T16:01:30.666Z,96172.13
2023-04-12T16:03:58.457Z,96168.88
2023-04-12T16:06:26.274Z,96180.63
2023-04-12T16:08:54.679Z,96177.28
2023-04-12T16:11:23.904Z,96174.28
2023-04-12T16:13:53.285Z,96188.59
2023-04-12T16:16:22.494Z,96175.00
2023-04-12T16:18:51.425Z,96183.38
2023-04-12T16:21:22.160Z,96185.88
2023-04-12T16:23:50.879Z,96193.63
2023-04-12T16:26:22.531Z,96179.56
2023-04-12T16:28:53.227Z,96169.16
2023-04-12T16:31:21.622Z,96164.13
2023-04-12T16:33:50.851Z,96169.78
2023-04-12T16:36:19.055Z,96176.84
2023-04-12T16:38:46.670Z,96166.94
2023-04-12T16:41:14.408Z,96175.72
2023-04-12T16:43:44.796Z,96166.91
2023-04-12T16:46:14.897Z,96161.56
2023-04-12T16:48:42.732Z,96162.47
2023-04-12T16:51:10.232Z,96166.78
2023-04-12T16:53:37.744Z,96172.72
2023-04-12T16:56:05.668Z,96173.56
2023-04-12T16:58:33.393Z,96170.53
2023-04-12T17:01:01.816Z,96169.34
2023-04-12T17:03:30.132Z,96169.72
2023-04-12T17:05:58.103Z,96172.59
2023-04-12T17:08:26.072Z,96174.00
2023-04-12T17:10:54.355Z,96177.13
2023-04-12T17:13:22.051Z,96177.97
2023-04-12T17:15:49.548Z,96186.81
2023-04-12T17:18:17.130Z,96183.78
2023-04-12T17:20:45.244Z,96195.91
2023-04-12T17:23:13.432Z,96188.53
2023-04-12T17:25:41.698Z,96199.06
2023-04-12T17:28:09.444Z,96199.50
2023-04-12T17:30:37.125Z,96198.91
2023-04-12T17:33:07.226Z,96208.00
2023-04-12T17:35:35.437Z,96208.22
2023-04-12T17:38:02.961Z,96218.72
2023-04-12T17:40:30.469Z,96223.50
2023-04-12T17:42:58.227Z,96216.94
2023-04-12T17:45:26.129Z,96206.44
2023-04-12T17:47:54.469Z,96199.91
2023-04-12T17:50:22.413Z,96191.88
2023-04-12T17:52:49.949Z,96186.72
2023-04-12T17:55:22.905Z,96182.84
2023-04-12T17:57:50.496Z,96173.16
2023-04-12T18:00:19.304Z,96171.19
2023-04-12T18:02:47.119Z,96179.88
2023-04-12T18:05:15.340Z,96183.81
2023-04-12T18:07:43.026Z,96186.81
2023-04-12T18:10:15.337Z,96188.31
2023-04-12T18:12:46.423Z,96213.91
2023-04-12T18:15:13.916Z,96222.59
2023-04-12T18:17:41.490Z,96217.91
2023-04-12T18:20:10.659Z,96218.19
2023-04-12T18:22:38.774Z,96211.63
2023-04-12T18:25:08.001Z,96204.81
2023-04-12T18:27:35.904Z,96201.34
2023-04-12T18:30:04.697Z,96211.66
2023-04-12T18:32:32.267Z,96223.66
2023-04-12T18:35:00.344Z,96234.78
2023-04-12T18:37:27.947Z,96230.69
2023-04-12T18:39:55.567Z,96220.63
2023-04-12T18:42:23.169Z,96228.06
2023-04-12T18:44:52.216Z,96227.91
2023-04-12T18:47:20.392Z,96242.53
2023-04-12T18:49:48.050Z,96243.81
2023-04-12T18:52:15.636Z,96242.19
2023-04-12T18:54:43.198Z,96250.44
2023-04-12T18:57:10.897Z,96266.69
2023-04-12T18:59:38.435Z,96267.56
2023-04-12T19:02:06.719Z,96288.97
2023-04-12T19:04:35.868Z,96276.03
2023-04-12T19:07:03.370Z,96266.13
2023-04-12T19:09:30.934Z,96278.50
2023-04-12T19:11:58.427Z,96280.34
2023-04-12T19:14:28.016Z,96269.66
2023-04-12T19:16:56.027Z,96279.78
2023-04-12T19:19:23.560Z,96276.09
2023-04-12T19:21:51.056Z,96284.72
2023-04-12T19:24:18.555Z,96275.28
2023-04-12T19:26:47.237Z,96276.56
2023-04-12T19:29:15.756Z,96279.44
2023-04-12T19:31:45.718Z,96277.19
2023-04-12T19:34:17.805Z,96278.63
2023-04-12T19:36:45.706Z,96286.47
2023-04-12T19:39:13.420Z,96284.22
2023-04-12T19:41:40.937Z,96289.94
2023-04-12T19:44:08.658Z,96288.13
2023-04-12T19:46:38.592Z,96294.06
2023-04-12T19:49:06.109Z,96300.25
2023-04-12T19:51:34.538Z,96310.75
2023-04-12T19:54:02.784Z,96308.72
2023-04-12T19:56:31.412Z,96306.66
2023-04-12T19:58:59.903Z,96296.34
2023-04-12T20:01:27.890Z,96303.31
2023-04-12T20:03:55.516Z,96313.03
2023-04-12T20:06:23.177Z,96308.53
2023-04-12T20:08:50.730Z,96306.47
2023-04-12T20:11:18.238Z,96311.00
2023-04-12T20:13:46.100Z,96300.97
2023-04-12T20:16:13.593Z,96301.59
2023-04-12T20:18:41.285Z,96301.16
2023-04-12T20:21:12.297Z,96315.41
2023-04-12T20:23:39.780Z,96338.47
2023-04-12T20:26:08.673Z,96359.00
2023-04-12T20:28:37.582Z,96383.13
2023-04-12T20:31:05.948Z,96396.31
2023-04-12T20:33:33.573Z,96402.47
2023-04-12T20:36:01.275Z,96409.47
2023-04-12T20:38:30.646Z,96421.78
2023-04-12T20:40:58.330Z,96424.19
2023-04-12T20:43:26.282Z,96412.47
2023-04-12T20:45:53.929Z,96413.13
2023-04-12T20:48:21.871Z,96412.47
2023-04-12T20:50:50.258Z,96399.13
2023-04-12T20:53:17.972Z,96383.13
2023-04-12T20:55:45.900Z,96377.19
2023-04-12T20:58:14.303Z,96382.34
2023-04-12T21:00:41.818Z,96383.16
2023-04-12T21:03:10.129Z,96396.91
2023-04-12T21:05:38.025Z,96395.09
2023-04-12T21:08:07.453Z,96393.44
2023-04-12T21:10:34.926Z,96388.91
2023-04-12T21:13:02.816Z,96393.22
2023-04-12T21:15:31.789Z,96393.22
2023-04-12T21:17:59.297Z,96394.03
2023-04-12T21:20:27.267Z,96381.75
2023-04-12T21:22:54.777Z,96383.56
2023-04-12T21:25:22.784Z,96388.28
2023-04-12T21:27:50.329Z,96377.59
2023-04-12T21:30:17.839Z,96381.91
2023-04-12T21:32:45.430Z,96383.97
2023-04-12T21:35:13.942Z,96386.63
2023-04-12T21:37:41.549Z,96394.63
2023-04-12T21:40:09.616Z,96395.88
2023-04-12T21:42:38.014Z,96406.53
2023-04-12T21:45:08.540Z,96414.34
2023-04-12T21:47:36.635Z,96415.97
2023-04-12T21:50:04.622Z,96413.94
2023-04-12T21:52:32.103Z,96416.22
2023-04-12T21:55:00.001Z,96421.53
2023-04-12T21:57:34.745Z,96425.84
2023-04-12T22:00:05.274Z,96434.47
2023-04-12T22:02:40.378Z,96425.59
2023-04-12T22:05:08.634Z,96433.00
2023-04-12T22:07:40.748Z,96435.03
2023-04-12T22:10:09.660Z,96441.63
2023-04-12T22:12:40.243Z,96438.75
2023-04-12T22:15:09.029Z,96437.53
2023-04-12T22:17:37.601Z,96445.47
2023-04-12T22:20:08.255Z,96439.56
2023-04-12T22:22:37.063Z,96441.19
2023-04-12T22:25:08.239Z,96450.44
2023-04-12T22:27:36.126Z,96461.50
2023-04-12T22:30:03.808Z,96459.63
2023-04-12T22:32:32.769Z,96467.38
2023-04-12T22:35:08.152Z,96474.19
2023-04-12T22:37:41.505Z,96468.84
2023-04-12T22:40:12.364Z,96471.91
2023-04-12T22:42:46.354Z,96473.72
2023-04-12T22:45:16.480Z,96483.09
2023-04-12T22:47:45.188Z,96473.47
2023-04-12T22:50:13.265Z,96480.72
2023-04-12T22:52:41.790Z,96476.63
2023-04-12T22:55:14.333Z,96480.72
2023-04-12T22:57:41.928Z,96479.72
2023-04-12T23:00:14.935Z,96475.38
2023-04-12T23:02:46.087Z,96475.38
2023-04-12T23:05:14.368Z,96480.53
2023-04-12T23:07:43.401Z,96481.56
2023-04-12T23:10:12.018Z,96481.56
2023-04-12T23:12:39.711Z,96486.06
2023-04-12T23:15:08.875Z,96483.38
2023-04-12T23:17:36.692Z,96485.06
2023-04-12T23:20:09.764Z,96486.50
2023-04-12T23:22:55.767Z,96481.78
2023-04-12T23:25:39.500Z,96483.44
2023-04-12T23:28:13.827Z,96469.06
2023-04-12T23:30:49.017Z,96469.06
2023-04-12T23:33:18.840Z,96460.44
2023-04-12T23:35:52.040Z,96455.09
2023-04-12T23:38:25.876Z,96458.38
2023-04-12T23:40:56.142Z,96456.75
2023-04-12T23:43:25.258Z,96459.81
2023-04-12T23:45:53.225Z,96455.91
2023-04-12T23:48:21.632Z,96460.41
2023-04-12T23:50:49.974Z,96466.56
2023-04-12T23:53:18.576Z,96464.31
2023-04-12T23:55:53.417Z,96466.69
2023-04-12T23:58:21.588Z,96470.19
